createdAt,value
2023-03-11T00:00:43.708Z,100962.44
2023-03-11T00:03:15.652Z,100959.03
2023-03-11T00:05:46.398Z,100967.97
2023-03-11T00:08:18.177Z,100958.31
2023-03-11T00:10:48.774Z,100968.09
2023-03-11T00:13:17.752Z,100958.25
2023-03-11T00:15:51.101Z,100956.47
2023-03-11T00:18:19.833Z,100957.44
2023-03-11T00:20:48.325Z,100967.31
2023-03-11T00:23:17.622Z,100965.69
2023-03-11T00:25:47.543Z,100964.81
2023-03-11T00:28:17.432Z,100954.28
2023-03-11T00:30:47.456Z,100962.34
2023-03-11T00:33:16.957Z,100966.81
2023-03-11T00:35:46.058Z,100974.78
2023-03-11T00:38:17.011Z,100983.75
2023-03-11T00:40:47.786Z,100975.78
2023-03-11T00:43:17.524Z,100977.50
2023-03-11T00:45:45.949Z,100980.31
2023-03-11T00:48:15.829Z,100990.00
2023-03-11T00:50:44.301Z,100987.38
2023-03-11T00:53:13.089Z,100992.91
2023-03-11T00:55:41.417Z,100991.19
2023-03-11T00:58:10.061Z,100999.25
2023-03-11T01:00:38.383Z,101003.81
2023-03-11T01:03:07.320Z,101008.38
2023-03-11T01:05:36.789Z,101011.28
2023-03-11T01:08:06.024Z,101005.13
2023-03-11T01:10:35.960Z,101006.78
2023-03-11T01:13:05.053Z,100997.03
2023-03-11T01:15:36.379Z,100991.78
2023-03-11T01:18:06.014Z,100991.78
2023-03-11T01:20:34.604Z,101004.09
2023-03-11T01:23:02.956Z,100999.53
2023-03-11T01:25:31.293Z,101007.50
2023-03-11T01:28:00.575Z,101009.41
2023-03-11T01:30:30.008Z,101013.97
2023-03-11T01:32:59.350Z,101017.88
2023-03-11T01:35:29.316Z,101023.31
2023-03-11T01:37:58.355Z,101016.34
2023-03-11T01:40:26.731Z,101026.91
2023-03-11T01:42:55.075Z,101029.63
2023-03-11T01:45:42.909Z,101029.72
2023-03-11T01:48:12.347Z,101022.66
2023-03-11T01:50:44.820Z,101011.03
2023-03-11T01:53:16.641Z,101003.94
2023-03-11T01:55:46.388Z,101010.97
2023-03-11T01:58:19.744Z,101017.16
2023-03-11T02:00:48.755Z,101024.19
2023-03-11T02:03:38.858Z,101017.16
2023-03-11T02:06:23.448Z,101020.66
2023-03-11T02:08:52.070Z,101016.22
2023-03-11T02:11:28.105Z,101012.75
2023-03-11T02:14:00.095Z,101014.56
2023-03-11T02:16:28.721Z,101019.72
2023-03-11T02:19:01.730Z,101010.88
2023-03-11T02:21:33.049Z,101003.78
2023-03-11T02:24:14.469Z,101008.25
2023-03-11T02:27:02.420Z,101010.97
2023-03-11T02:29:31.472Z,101018.06
2023-03-11T02:32:00.796Z,101027.84
2023-03-11T02:34:31.900Z,101038.53
2023-03-11T02:37:00.477Z,101039.63
2023-03-11T02:39:35.556Z,101045.91
2023-03-11T02:42:17.055Z,101056.53
2023-03-11T02:44:50.009Z,101054.75
2023-03-11T02:47:18.563Z,101038.84
2023-03-11T02:49:46.999Z,101044.16
2023-03-11T02:52:15.215Z,101050.19
2023-03-11T02:54:43.434Z,101051.88
2023-03-11T02:57:11.661Z,101044.69
2023-03-11T02:59:39.957Z,101047.25
2023-03-11T03:02:08.227Z,101048.09
2023-03-11T03:04:36.637Z,101050.72
2023-03-11T03:07:04.964Z,101052.53
2023-03-11T03:09:34.343Z,101056.91
2023-03-11T03:12:02.781Z,101054.47
2023-03-11T03:14:32.483Z,101058.16
2023-03-11T03:17:00.892Z,101055.56
2023-03-11T03:19:29.243Z,101056.41
2023-03-11T03:21:57.505Z,101041.25
2023-03-11T03:24:25.769Z,101055.47
2023-03-11T03:26:53.999Z,101053.75
2023-03-11T03:29:22.337Z,101042.28
2023-03-11T03:31:50.879Z,101030.63
2023-03-11T03:34:19.182Z,101035.88
2023-03-11T03:36:47.471Z,101039.38
2023-03-11T03:39:15.877Z,101044.78
2023-03-11T03:41:44.140Z,101042.13
2023-03-11T03:44:12.787Z,101041.19
2023-03-11T03:46:41.012Z,101036.72
2023-03-11T03:49:09.346Z,101031.34
2023-03-11T03:51:37.783Z,101038.41
2023-03-11T03:54:06.133Z,101038.47
2023-03-11T03:56:34.419Z,101035.00
2023-03-11T03:59:02.628Z,101040.25
2023-03-11T04:01:30.917Z,101046.38
2023-03-11T04:03:59.215Z,101041.06
2023-03-11T04:06:28.867Z,101044.63
2023-03-11T04:08:57.472Z,101051.69
2023-03-11T04:11:25.651Z,101055.19
2023-03-11T04:13:53.897Z,101059.47
2023-03-11T04:16:24.773Z,101061.22
2023-03-11T04:18:53.067Z,101056.81
2023-03-11T04:21:21.752Z,101054.16
2023-03-11T04:23:50.344Z,101058.44
2023-03-11T04:26:18.669Z,101062.88
2023-03-11T04:28:46.878Z,101078.09
2023-03-11T04:31:15.210Z,101083.41
2023-03-11T04:33:43.550Z,101081.59
2023-03-11T04:36:12.782Z,101079.81
2023-03-11T04:38:41.062Z,101081.53
2023-03-11T04:41:09.461Z,101083.28
2023-03-11T04:43:37.720Z,101076.22
2023-03-11T04:46:06.108Z,101081.53
2023-03-11T04:48:34.338Z,101091.25
2023-03-11T04:51:02.625Z,101102.75
2023-03-11T04:53:31.069Z,101100.00
2023-03-11T04:55:59.432Z,101097.34
2023-03-11T04:58:27.646Z,101095.56
2023-03-11T05:00:57.117Z,101102.66
2023-03-11T05:03:25.553Z,101104.50
2023-03-11T05:05:57.460Z,101108.91
2023-03-11T05:08:25.889Z,101118.66
2023-03-11T05:10:54.755Z,101116.09
2023-03-11T05:13:23.515Z,101120.53
2023-03-11T05:15:52.103Z,101117.00
2023-03-11T05:18:20.347Z,101111.69
2023-03-11T05:20:48.896Z,101106.38
2023-03-11T05:23:17.234Z,101107.31
2023-03-11T05:25:45.594Z,101110.00
2023-03-11T05:28:13.901Z,101111.66
2023-03-11T05:30:42.173Z,101117.00
2023-03-11T05:33:10.402Z,101118.84
2023-03-11T05:35:38.739Z,101122.47
2023-03-11T05:38:06.986Z,101121.75
2023-03-11T05:40:35.316Z,101119.25
2023-03-11T05:43:03.533Z,101126.50
2023-03-11T05:45:31.789Z,101130.41
2023-03-11T05:48:00.088Z,101141.22
2023-03-11T05:50:28.407Z,101144.00
2023-03-11T05:52:56.625Z,101152.03
2023-03-11T05:55:24.892Z,101162.66
2023-03-11T05:57:53.864Z,101161.09
2023-03-11T06:00:22.614Z,101162.03
2023-03-11T06:02:51.188Z,101162.09
2023-03-11T06:05:19.534Z,101159.47
2023-03-11T06:07:47.838Z,101152.41
2023-03-11T06:10:16.089Z,101163.16
2023-03-11T06:12:44.372Z,101156.25
2023-03-11T06:15:12.735Z,101155.31
2023-03-11T06:17:40.961Z,101153.53
2023-03-11T06:20:10.654Z,101153.53
2023-03-11T06:22:40.264Z,101164.13
2023-03-11T06:25:09.104Z,101168.53
2023-03-11T06:27:37.410Z,101167.72
2023-03-11T06:30:06.319Z,101169.50
2023-03-11T06:32:36.220Z,101171.25
2023-03-11T06:35:05.717Z,101165.03
2023-03-11T06:37:38.071Z,101170.31
2023-03-11T06:40:08.812Z,101162.41
2023-03-11T06:42:37.906Z,101153.72
2023-03-11T06:45:06.780Z,101158.34
2023-03-11T06:47:35.079Z,101158.41
2023-03-11T06:50:07.451Z,101163.66
2023-03-11T06:52:35.857Z,101157.44
2023-03-11T06:55:04.920Z,101168.03
2023-03-11T06:57:34.579Z,101163.66
2023-03-11T07:00:02.971Z,101166.38
2023-03-11T07:02:31.230Z,101167.34
2023-03-11T07:04:59.506Z,101178.03
2023-03-11T07:07:27.761Z,101179.81
2023-03-11T07:09:59.245Z,101186.09
2023-03-11T07:12:27.581Z,101186.22
2023-03-11T07:14:57.361Z,101197.75
2023-03-11T07:17:26.176Z,101202.25
2023-03-11T07:19:54.926Z,101204.94
2023-03-11T07:22:23.075Z,101208.47
2023-03-11T07:24:51.835Z,101202.19
2023-03-11T07:27:20.076Z,101198.69
2023-03-11T07:29:48.418Z,101176.53
2023-03-11T07:32:16.721Z,101191.56
2023-03-11T07:34:44.992Z,101200.28
2023-03-11T07:37:13.252Z,101209.00
2023-03-11T07:39:41.466Z,101216.94
2023-03-11T07:42:09.781Z,101223.13
2023-03-11T07:44:38.006Z,101239.06
2023-03-11T07:47:07.237Z,101236.34
2023-03-11T07:49:35.443Z,101232.75
2023-03-11T07:52:03.676Z,101224.81
2023-03-11T07:54:31.854Z,101224.84
2023-03-11T07:57:00.120Z,101231.94
2023-03-11T07:59:28.462Z,101235.47
2023-03-11T08:01:57.872Z,101228.34
2023-03-11T08:04:26.070Z,101230.97
2023-03-11T08:06:54.441Z,101235.47
2023-03-11T08:09:22.602Z,101239.03
2023-03-11T08:11:50.853Z,101224.91
2023-03-11T08:14:19.087Z,101237.25
2023-03-11T08:16:47.316Z,101239.03
2023-03-11T08:19:15.705Z,101233.69
2023-03-11T08:21:43.897Z,101238.94
2023-03-11T08:24:14.284Z,101235.34
2023-03-11T08:26:43.127Z,101230.88
2023-03-11T08:29:11.470Z,101235.28
2023-03-11T08:31:39.690Z,101239.75
2023-03-11T08:34:10.643Z,101234.53
2023-03-11T08:36:38.908Z,101236.34
2023-03-11T08:39:07.183Z,101239.84
2023-03-11T08:41:35.637Z,101236.34
2023-03-11T08:44:03.941Z,101237.22
2023-03-11T08:46:36.812Z,101235.47
2023-03-11T08:49:05.769Z,101240.81
2023-03-11T08:51:35.604Z,101239.91
2023-03-11T08:54:04.657Z,101240.81
2023-03-11T08:56:33.179Z,101243.53
2023-03-11T08:59:01.502Z,101236.50
2023-03-11T09:01:30.984Z,101231.19
2023-03-11T09:03:59.451Z,101240.91
2023-03-11T09:06:27.724Z,101240.91
2023-03-11T09:08:55.937Z,101248.91
2023-03-11T09:11:24.804Z,101249.78
2023-03-11T09:13:53.509Z,101239.22
2023-03-11T09:16:24.059Z,101253.41
2023-03-11T09:18:52.702Z,101257.78
2023-03-11T09:21:21.564Z,101248.16
2023-03-11T09:23:49.885Z,101249.03
2023-03-11T09:26:18.200Z,101248.16
2023-03-11T09:28:49.768Z,101246.34
2023-03-11T09:31:19.045Z,101246.31
2023-03-11T09:33:48.180Z,101238.41
2023-03-11T09:36:22.482Z,101244.56
2023-03-11T09:38:51.180Z,101250.69
2023-03-11T09:41:19.375Z,101263.97
2023-03-11T09:44:18.073Z,101265.75
2023-03-11T09:47:11.269Z,101279.88
2023-03-11T09:49:56.290Z,101268.41
2023-03-11T09:52:39.110Z,101271.09
2023-03-11T09:55:26.176Z,101285.28
2023-03-11T09:57:57.036Z,101279.13
2023-03-11T10:00:25.995Z,101279.97
2023-03-11T10:02:54.742Z,101279.94
2023-03-11T10:05:31.424Z,101277.28
2023-03-11T10:08:17.318Z,101274.63
2023-03-11T10:10:54.351Z,101269.28
2023-03-11T10:13:33.365Z,101266.66
2023-03-11T10:16:21.640Z,101261.38
2023-03-11T10:19:11.292Z,101254.34
2023-03-11T10:21:53.978Z,101257.88
2023-03-11T10:24:54.600Z,101249.94
2023-03-11T10:27:40.406Z,101245.56
2023-03-11T10:30:18.706Z,101245.50
2023-03-11T10:33:00.322Z,101247.28
2023-03-11T10:35:46.944Z,101240.19
2023-03-11T10:38:23.994Z,101232.28
2023-03-11T10:41:21.041Z,101236.78
2023-03-11T10:44:03.763Z,101233.22
2023-03-11T10:46:32.010Z,101236.78
2023-03-11T10:49:00.186Z,101239.34
2023-03-11T10:51:35.223Z,101230.47
2023-03-11T10:54:05.053Z,101223.41
2023-03-11T10:56:39.846Z,101217.25
2023-03-11T10:59:28.419Z,101212.00
2023-03-11T11:02:24.440Z,101208.53
2023-03-11T11:05:09.577Z,101213.88
2023-03-11T11:07:42.635Z,101213.91
2023-03-11T11:10:16.211Z,101210.38
2023-03-11T11:12:59.887Z,101206.88
2023-03-11T11:15:32.392Z,101206.88
2023-03-11T11:18:20.669Z,101202.44
2023-03-11T11:21:07.778Z,101196.25
2023-03-11T11:23:38.685Z,101193.66
2023-03-11T11:26:17.109Z,101199.81
2023-03-11T11:28:45.361Z,101197.16
2023-03-11T11:31:27.461Z,101197.31
2023-03-11T11:33:57.442Z,101201.78
2023-03-11T11:36:35.455Z,101205.38
2023-03-11T11:39:13.328Z,101208.09
2023-03-11T11:41:41.568Z,101204.63
2023-03-11T11:44:16.733Z,101197.53
2023-03-11T11:46:53.996Z,101205.53
2023-03-11T11:49:22.151Z,101195.91
2023-03-11T11:52:26.000Z,101192.31
2023-03-11T11:55:02.902Z,101189.69
2023-03-11T11:57:31.240Z,101183.50
2023-03-11T11:59:59.620Z,101184.38
2023-03-11T12:03:05.986Z,101191.53
2023-03-11T12:05:44.864Z,101181.91
2023-03-11T12:08:35.308Z,101177.50
2023-03-11T12:11:12.534Z,101181.97
2023-03-11T12:14:04.141Z,101180.22
2023-03-11T12:16:38.113Z,101186.38
2023-03-11T12:19:12.449Z,101182.06
2023-03-11T12:22:01.474Z,101173.19
2023-03-11T12:24:52.321Z,101171.44
2023-03-11T12:27:29.732Z,101169.66
2023-03-11T12:30:04.131Z,101166.97
2023-03-11T12:32:45.276Z,101166.97
2023-03-11T12:35:22.805Z,101169.63
2023-03-11T12:38:02.821Z,101165.22
2023-03-11T12:40:43.676Z,101168.84
2023-03-11T12:43:44.159Z,101162.69
2023-03-11T12:46:15.100Z,101168.03
2023-03-11T12:48:43.273Z,101170.59
2023-03-11T12:51:38.237Z,101171.44
2023-03-11T12:54:31.596Z,101176.66
2023-03-11T12:57:03.050Z,101174.91
2023-03-11T13:00:10.483Z,101182.88
2023-03-11T13:03:02.783Z,101178.47
2023-03-11T13:06:09.629Z,101175.88
2023-03-11T13:08:49.540Z,101180.22
2023-03-11T13:11:32.664Z,101175.78
2023-03-11T13:14:26.737Z,101187.25
2023-03-11T13:16:55.426Z,101189.84
2023-03-11T13:19:36.722Z,101188.94
2023-03-11T13:22:07.241Z,101186.38
2023-03-11T13:24:35.371Z,101185.63
2023-03-11T13:27:20.532Z,101196.22
2023-03-11T13:30:22.112Z,101187.31
2023-03-11T13:33:21.757Z,101188.16
2023-03-11T13:36:27.074Z,101200.44
2023-03-11T13:39:16.132Z,101204.81
2023-03-11T13:41:46.002Z,101213.66
2023-03-11T13:44:28.961Z,101200.41
2023-03-11T13:47:06.759Z,101202.28
2023-03-11T13:49:50.905Z,101196.94
2023-03-11T13:52:28.213Z,101206.56
2023-03-11T13:55:21.077Z,101213.66
2023-03-11T13:57:57.914Z,101209.31
2023-03-11T14:00:29.390Z,101204.84
2023-03-11T14:03:12.985Z,101209.38
2023-03-11T14:05:47.417Z,101209.25
2023-03-11T14:08:24.964Z,101200.41
2023-03-11T14:11:00.742Z,101199.53
2023-03-11T14:13:31.417Z,101201.38
2023-03-11T14:16:02.519Z,101201.31
2023-03-11T14:18:36.855Z,101192.50
2023-03-11T14:21:08.146Z,101188.16
2023-03-11T14:23:41.748Z,101184.59
2023-03-11T14:26:23.506Z,101182.00
2023-03-11T14:28:55.542Z,101191.69
2023-03-11T14:31:32.582Z,101189.91
2023-03-11T14:34:13.354Z,101187.25
2023-03-11T14:36:43.185Z,101195.22
2023-03-11T14:39:33.836Z,101215.44
2023-03-11T14:42:14.550Z,101220.75
2023-03-11T14:44:44.760Z,101218.91
2023-03-11T14:47:18.517Z,101229.56
2023-03-11T14:49:48.797Z,101235.78
2023-03-11T14:52:38.216Z,101252.44
2023-03-11T14:55:17.191Z,101254.94
2023-03-11T14:57:58.389Z,101262.78
2023-03-11T15:00:54.380Z,101266.25
2023-03-11T15:03:34.176Z,101264.47
2023-03-11T15:06:10.506Z,101265.38
2023-03-11T15:08:46.217Z,101260.00
2023-03-11T15:11:14.355Z,101261.75
2023-03-11T15:13:45.235Z,101258.13
2023-03-11T15:16:45.224Z,101249.19
2023-03-11T15:19:35.289Z,101252.59
2023-03-11T15:22:41.769Z,101264.84
2023-03-11T15:25:20.973Z,101256.00
2023-03-11T15:27:49.204Z,101261.19
2023-03-11T15:30:23.648Z,101257.72
2023-03-11T15:32:53.079Z,101267.44
2023-03-11T15:35:26.164Z,101254.03
2023-03-11T15:38:32.832Z,101253.13
2023-03-11T15:41:03.872Z,101260.91
2023-03-11T15:43:48.071Z,101265.22
2023-03-11T15:46:16.399Z,101269.47
2023-03-11T15:48:44.696Z,101265.78
2023-03-11T15:51:21.509Z,101277.06
2023-03-11T15:53:50.279Z,101275.03
2023-03-11T15:56:25.682Z,101283.63
2023-03-11T15:58:53.911Z,101287.91
2023-03-11T16:01:25.131Z,101275.50
2023-03-11T16:03:53.517Z,101283.00
2023-03-11T16:06:23.591Z,101277.50
2023-03-11T16:08:52.186Z,101289.50
2023-03-11T16:11:20.924Z,101279.47
2023-03-11T16:13:49.238Z,101280.09
2023-03-11T16:16:18.784Z,101279.03
2023-03-11T16:18:47.045Z,101278.81
2023-03-11T16:21:22.535Z,101282.19
2023-03-11T16:23:52.421Z,101266.81
2023-03-11T16:26:22.132Z,101269.34
2023-03-11T16:28:50.379Z,101266.34
2023-03-11T16:31:19.495Z,101268.66
2023-03-11T16:33:47.763Z,101267.44
2023-03-11T16:36:16.066Z,101262.66
2023-03-11T16:38:47.924Z,101262.19
2023-03-11T16:41:17.483Z,101262.53
2023-03-11T16:43:46.121Z,101258.56
2023-03-11T16:46:14.437Z,101259.19
2023-03-11T16:48:42.698Z,101254.75
2023-03-11T16:51:11.251Z,101246.72
2023-03-11T16:53:39.488Z,101250.97
2023-03-11T16:56:08.016Z,101254.31
2023-03-11T16:58:36.223Z,101251.44
2023-03-11T17:01:04.515Z,101254.69
2023-03-11T17:03:42.098Z,101255.50
2023-03-11T17:06:10.952Z,101261.44
2023-03-11T17:08:39.213Z,101253.09
2023-03-11T17:11:14.786Z,101253.63
2023-03-11T17:13:43.018Z,101257.84
2023-03-11T17:16:11.416Z,101253.09
2023-03-11T17:18:39.850Z,101252.94
2023-03-11T17:21:13.375Z,101258.78
2023-03-11T17:23:42.031Z,101259.19
2023-03-11T17:26:16.944Z,101260.56
2023-03-11T17:28:45.340Z,101264.69
2023-03-11T17:31:18.170Z,101270.34
2023-03-11T17:33:47.119Z,101257.41
2023-03-11T17:36:18.952Z,101259.63
2023-03-11T17:38:48.421Z,101263.66
2023-03-11T17:41:18.628Z,101262.59
2023-03-11T17:43:49.223Z,101270.72
2023-03-11T17:46:21.190Z,101261.75
2023-03-11T17:48:51.476Z,101268.56
2023-03-11T17:51:22.666Z,101271.91
2023-03-11T17:53:51.544Z,101276.13
2023-03-11T17:56:21.384Z,101268.66
2023-03-11T17:58:51.240Z,101268.03
2023-03-11T18:01:24.832Z,101263.03
2023-03-11T18:03:53.645Z,101269.69
2023-03-11T18:06:23.117Z,101256.91
2023-03-11T18:08:52.087Z,101256.63
2023-03-11T18:11:23.435Z,101267.38
2023-03-11T18:13:52.679Z,101269.13
2023-03-11T18:16:26.916Z,101272.75
2023-03-11T18:18:56.160Z,101271.34
2023-03-11T18:21:26.890Z,101282.38
2023-03-11T18:23:59.250Z,101279.16
2023-03-11T18:26:29.468Z,101280.09
2023-03-11T18:28:59.237Z,101289.19
2023-03-11T18:31:29.183Z,101282.03
2023-03-11T18:34:01.340Z,101287.38
2023-03-11T18:36:31.830Z,101283.88
2023-03-11T18:39:01.324Z,101295.59
2023-03-11T18:41:33.335Z,101292.16
2023-03-11T18:44:02.231Z,101297.50
2023-03-11T18:46:34.950Z,101303.78
2023-03-11T18:49:04.704Z,101304.53
2023-03-11T18:51:33.857Z,101305.91
2023-03-11T18:54:02.313Z,101302.88
2023-03-11T18:56:33.384Z,101304.25
2023-03-11T18:59:01.973Z,101302.06
2023-03-11T19:01:30.839Z,101308.16
2023-03-11T19:04:01.258Z,101311.91
2023-03-11T19:06:30.307Z,101304.94
2023-03-11T19:08:58.881Z,101302.03
2023-03-11T19:11:27.596Z,101304.22
2023-03-11T19:13:56.504Z,101308.13
2023-03-11T19:16:27.341Z,101310.38
2023-03-11T19:18:56.821Z,101303.00
2023-03-11T19:21:26.877Z,101306.50
2023-03-11T19:23:57.321Z,101305.47
2023-03-11T19:26:41.420Z,101308.75
2023-03-11T19:29:11.795Z,101300.13
2023-03-11T19:31:40.181Z,101302.03
2023-03-11T19:34:08.577Z,101303.78
2023-03-11T19:36:36.797Z,101307.19
2023-03-11T19:39:05.104Z,101301.97
2023-03-11T19:41:33.305Z,101306.38
2023-03-11T19:44:01.837Z,101315.06
2023-03-11T19:46:30.646Z,101310.16
2023-03-11T19:48:59.717Z,101303.06
2023-03-11T19:51:32.960Z,101311.75
2023-03-11T19:54:07.280Z,101319.38
2023-03-11T19:56:35.518Z,101314.50
2023-03-11T19:59:03.945Z,101317.72
2023-03-11T20:01:32.592Z,101320.09
2023-03-11T20:04:00.807Z,101307.53
2023-03-11T20:06:29.104Z,101312.81
2023-03-11T20:08:57.814Z,101312.34
2023-03-11T20:11:26.121Z,101323.41
2023-03-11T20:13:54.508Z,101321.53
2023-03-11T20:16:23.441Z,101320.47
2023-03-11T20:18:52.668Z,101312.44
2023-03-11T20:21:21.127Z,101309.75
2023-03-11T20:23:49.988Z,101306.13
2023-03-11T20:26:20.124Z,101305.69
2023-03-11T20:28:48.428Z,101295.16
2023-03-11T20:31:20.529Z,101301.81
2023-03-11T20:33:50.644Z,101289.50
2023-03-11T20:36:22.473Z,101286.88
2023-03-11T20:38:52.951Z,101304.16
2023-03-11T20:41:24.017Z,101297.22
2023-03-11T20:43:57.380Z,101296.06
2023-03-11T20:46:26.189Z,101294.00
2023-03-11T20:48:54.524Z,101292.19
2023-03-11T20:51:25.214Z,101292.47
2023-03-11T20:53:54.353Z,101273.13
2023-03-11T20:56:25.756Z,101276.16
2023-03-11T20:58:56.710Z,101272.97
2023-03-11T21:01:29.346Z,101266.03
2023-03-11T21:04:00.749Z,101271.75
2023-03-11T21:06:41.766Z,101274.31
2023-03-11T21:09:17.452Z,101277.69
2023-03-11T21:11:46.214Z,101274.00
2023-03-11T21:14:19.530Z,101277.94
2023-03-11T21:16:47.970Z,101273.69
2023-03-11T21:19:16.385Z,101272.63
2023-03-11T21:21:44.642Z,101267.25
2023-03-11T21:24:13.300Z,101269.75
2023-03-11T21:26:41.745Z,101267.66
2023-03-11T21:29:10.516Z,101268.00
2023-03-11T21:31:38.862Z,101253.16
2023-03-11T21:34:07.405Z,101253.34
2023-03-11T21:36:35.725Z,101255.91
2023-03-11T21:39:04.241Z,101252.16
2023-03-11T21:41:32.782Z,101246.81
2023-03-11T21:44:01.423Z,101243.84
2023-03-11T21:46:32.432Z,101253.84
2023-03-11T21:49:01.739Z,101246.16
2023-03-11T21:51:31.319Z,101235.31
2023-03-11T21:54:00.157Z,101239.25
2023-03-11T21:56:29.398Z,101224.00
2023-03-11T21:58:57.878Z,101222.81
2023-03-11T22:01:26.405Z,101229.88
2023-03-11T22:03:54.865Z,101235.41
2023-03-11T22:06:23.482Z,101239.78
2023-03-11T22:08:52.150Z,101250.25
2023-03-11T22:11:21.274Z,101248.66
2023-03-11T22:13:52.444Z,101242.41
2023-03-11T22:16:22.677Z,101244.38
2023-03-11T22:18:52.581Z,101247.75
2023-03-11T22:21:21.741Z,101254.78
2023-03-11T22:23:50.344Z,101245.53
2023-03-11T22:26:18.630Z,101255.63
2023-03-11T22:28:46.916Z,101244.75
2023-03-11T22:31:16.285Z,101241.19
2023-03-11T22:33:44.520Z,101248.81
2023-03-11T22:36:12.897Z,101257.38
2023-03-11T22:38:42.955Z,101252.84
2023-03-11T22:41:11.995Z,101257.38
2023-03-11T22:43:40.860Z,101256.72
2023-03-11T22:46:09.208Z,101262.38
2023-03-11T22:48:37.857Z,101256.09
2023-03-11T22:51:07.134Z,101264.72
2023-03-11T22:53:35.582Z,101265.56
2023-03-11T22:56:09.320Z,101271.81
2023-03-11T22:58:37.575Z,101266.44
2023-03-11T23:01:06.782Z,101276.34
2023-03-11T23:03:36.377Z,101265.56
2023-03-11T23:06:08.363Z,101270.63
2023-03-11T23:08:37.447Z,101260.88
2023-03-11T23:11:09.217Z,101258.06
2023-03-11T23:13:37.629Z,101267.97
2023-03-11T23:16:15.048Z,101270.19
2023-03-11T23:18:46.111Z,101266.91
2023-03-11T23:21:21.307Z,101268.00
2023-03-11T23:23:50.626Z,101268.41
2023-03-11T23:26:20.327Z,101266.00
2023-03-11T23:28:51.689Z,101266.25
2023-03-11T23:31:21.153Z,101267.31
2023-03-11T23:33:50.058Z,101275.34
2023-03-11T23:36:21.100Z,101279.81
2023-03-11T23:38:51.878Z,101283.59
2023-03-11T23:41:24.611Z,101281.81
2023-03-11T23:43:53.111Z,101277.81
2023-03-11T23:46:21.485Z,101285.31
2023-03-11T23:48:49.907Z,101277.53
2023-03-11T23:51:18.180Z,101285.56
2023-03-11T23:53:46.862Z,101280.28
2023-03-11T23:56:18.090Z,101282.41
2023-03-11T23:58:47.263Z,101289.50
